Time;durP1;ratioP1;P1;durP2;ratioP2;P2;SDS_P1;SDS_P2;PMS_P1;PMS_P2;Temp;Humidity;BMP_temperature;BMP_pressure;BME280_temperature;BME280_humidity;BME280_pressure;Samples;Min_cycle;Max_cycle;Signal;HPM_P1;HPM_P2
2023/08/01 00:02:56;;;;;;;7.03;5.40;;;29.60;25.00;;;;;;21091094;28;20516;-55
2023/08/01 00:12:57;;;;;;;9.75;5.90;;;29.40;25.30;;;;;;21090367;28;20056;-56
2023/08/01 00:22:58;;;;;;;20.63;6.60;;;29.20;25.90;;;;;;21089689;28;20040;-55
2023/08/01 00:32:58;;;;;;;8.80;5.40;;;29.20;26.20;;;;;;21088695;28;20047;-55
2023/08/01 00:42:59;;;;;;;6.18;4.40;;;29.10;26.40;;;;;;21086799;28;20055;-55
2023/08/01 00:53:00;;;;;;;5.70;4.13;;;29.00;26.60;;;;;;21087196;28;20044;-57
2023/08/01 01:03:01;;;;;;;5.03;3.90;;;28.90;26.90;;;;;;21084609;28;20036;-54
2023/08/01 01:13:03;;;;;;;6.78;4.93;;;28.70;27.70;;;;;;21084376;28;20505;-55
2023/08/01 01:23:05;;;;;;;10.50;4.82;;;28.60;28.20;;;;;;21084470;28;20043;-56
2023/08/01 01:33:06;;;;;;;8.30;4.00;;;28.40;28.50;;;;;;21083680;28;20047;-54
2023/08/01 01:43:07;;;;;;;5.85;4.47;;;28.30;28.80;;;;;;21081754;28;20109;-56
2023/08/01 01:53:08;;;;;;;;;;;28.10;29.20;;;;;;21083245;28;20489;-55
2023/08/01 02:03:10;;;;;;;7.25;4.30;;;27.90;29.70;;;;;;21081418;28;19920;-54
2023/08/01 02:13:11;;;;;;;4.53;3.42;;;27.90;30.10;;;;;;21078558;28;20066;-55
2023/08/01 02:23:11;;;;;;;;;;;27.80;30.60;;;;;;21080941;28;20481;-55
2023/08/01 02:33:12;;;;;;;5.33;4.13;;;27.60;31.10;;;;;;21079649;28;20014;-55
2023/08/01 02:43:13;;;;;;;6.13;4.00;;;27.40;31.50;;;;;;21079292;28;20076;-55
2023/08/01 02:53:13;;;;;;;7.00;4.63;;;27.40;31.80;;;;;;21079663;28;20090;-54
2023/08/01 03:03:15;;;;;;;4.63;3.87;;;27.40;31.90;;;;;;21078129;28;20353;-55
2023/08/01 03:13:15;;;;;;;;;;;27.30;31.90;;;;;;21077511;28;20508;-54
2023/08/01 03:23:16;;;;;;;5.65;3.42;;;27.30;32.20;;;;;;21089296;28;20006;-55
2023/08/01 03:33:17;;;;;;;4.80;3.50;;;27.20;32.40;;;;;;21093670;28;20067;-55
2023/08/01 03:43:23;;;;;;;4.60;3.40;;;27.30;32.40;;;;;;21093123;28;20040;-55
2023/08/01 03:53:23;;;;;;;6.75;3.30;;;27.20;32.60;;;;;;21092264;28;20060;-55
2023/08/01 04:03:24;;;;;;;6.13;4.47;;;27.10;32.80;;;;;;21090911;28;20112;-54
2023/08/01 04:13:25;;;;;;;5.17;4.10;;;26.90;33.40;;;;;;21072787;28;20079;-55
2023/08/01 04:23:26;;;;;;;5.67;3.23;;;26.90;33.50;;;;;;21088540;28;20076;-55
2023/08/01 04:33:27;;;;;;;6.77;3.30;;;26.80;33.70;;;;;;21086305;28;20048;-56
2023/08/01 04:43:27;;;;;;;7.82;3.72;;;26.70;33.90;;;;;;21086677;28;20044;-54
2023/08/01 04:53:28;;;;;;;6.23;3.30;;;26.80;33.80;;;;;;21087391;28;20052;-55
2023/08/01 05:03:29;;;;;;;6.57;3.53;;;26.60;34.00;;;;;;21086375;28;20071;-55
2023/08/01 05:13:30;;;;;;;16.10;4.80;;;26.60;34.30;;;;;;21084870;28;20116;-55
2023/08/01 05:23:31;;;;;;;5.73;3.57;;;26.50;34.30;;;;;;21084635;28;20127;-55
2023/08/01 05:33:31;;;;;;;7.17;3.20;;;26.50;34.80;;;;;;21083828;28;20123;-55
2023/08/01 05:43:32;;;;;;;7.63;4.30;;;26.50;35.10;;;;;;21083216;28;20051;-56
2023/08/01 05:53:33;;;;;;;7.47;3.70;;;26.50;34.80;;;;;;21082483;28;20052;-55
2023/08/01 06:03:34;;;;;;;7.23;3.93;;;26.50;34.60;;;;;;21080729;28;20127;-56
2023/08/01 06:13:37;;;;;;;6.78;3.67;;;26.60;34.60;;;;;;21080590;28;20505;-56
2023/08/01 06:23:38;;;;;;;6.57;4.73;;;26.50;34.20;;;;;;21080064;28;20047;-56
2023/08/01 06:33:39;;;;;;;5.73;4.40;;;26.50;34.20;;;;;;21079950;28;20515;-56
2023/08/01 06:43:39;;;;;;;5.93;3.53;;;26.60;34.10;;;;;;21078055;28;20455;-56
2023/08/01 06:53:40;;;;;;;7.33;4.40;;;26.70;33.80;;;;;;21084961;28;20461;-56
2023/08/01 07:03:41;;;;;;;5.68;3.88;;;27.50;32.20;;;;;;21106475;28;20044;-56
2023/08/01 07:13:42;;;;;;;9.23;3.80;;;28.20;31.70;;;;;;21105787;28;20116;-56
2023/08/01 07:23:43;;;;;;;8.15;3.88;;;28.80;31.40;;;;;;21104764;28;20040;-56
2023/08/01 07:33:44;;;;;;;10.23;4.25;;;29.20;29.80;;;;;;21104856;28;20093;-56
2023/08/01 07:43:44;;;;;;;6.60;3.60;;;29.60;29.30;;;;;;21105460;28;20056;-57
2023/08/01 07:53:45;;;;;;;5.65;3.92;;;29.90;27.80;;;;;;21103025;28;20052;-56
2023/08/01 08:03:46;;;;;;;5.35;3.65;;;30.20;26.40;;;;;;21102602;28;20127;-56
2023/08/01 08:13:47;;;;;;;6.70;3.95;;;30.20;26.60;;;;;;21091499;28;20509;-56
2023/08/01 08:23:47;;;;;;;5.88;3.80;;;30.50;26.10;;;;;;21089785;28;20048;-57
2023/08/01 08:33:48;;;;;;;7.57;3.58;;;30.70;26.00;;;;;;21087829;28;20043;-55
2023/08/01 08:43:50;;;;;;;6.78;4.00;;;30.70;26.00;;;;;;21087817;28;20044;-57
2023/08/01 08:53:53;;;;;;;5.68;3.78;;;30.80;25.90;;;;;;21087492;28;20048;-56
2023/08/01 09:03:55;;;;;;;6.20;4.72;;;31.00;25.60;;;;;;21086535;28;20171;-57
2023/08/01 09:13:56;;;;;;;7.18;4.10;;;31.00;25.70;;;;;;21085210;28;20067;-58
2023/08/01 09:23:57;;;;;;;9.88;4.65;;;31.00;25.00;;;;;;21083474;28;20052;-57
2023/08/01 09:33:58;;;;;;;7.05;4.07;;;31.20;24.80;;;;;;21082736;28;20044;-58
2023/08/01 09:43:59;;;;;;;7.93;4.75;;;31.70;24.50;;;;;;21082540;28;20055;-57
2023/08/01 09:54:00;;;;;;;6.40;4.35;;;31.70;28.20;;;;;;21082170;28;20558;-56
2023/08/01 10:04:01;;;;;;;8.32;5.00;;;31.60;25.50;;;;;;21081724;28;20040;-58
2023/08/01 10:14:03;;;;;;;6.35;4.10;;;31.70;24.30;;;;;;21078807;28;20496;-56
2023/08/01 10:24:06;;;;;;;6.10;4.13;;;31.70;24.10;;;;;;21080891;28;20051;-56
2023/08/01 10:34:14;;;;;;;7.68;4.00;;;31.90;23.50;;;;;;21077064;28;20040;-57
2023/08/01 10:44:15;;;;;;;5.25;3.88;;;32.00;23.40;;;;;;21079105;28;20066;-61
2023/08/01 10:54:21;;;;;;;5.90;4.22;;;32.10;22.90;;;;;;21078989;28;20040;-59
2023/08/01 11:04:23;;;;;;;7.80;4.28;;;32.10;22.60;;;;;;20990150;28;20048;-60
2023/08/01 11:14:27;;;;;;;7.72;4.22;;;32.30;21.80;;;;;;20993520;28;20052;-58
2023/08/01 11:24:28;;;;;;;7.78;4.35;;;32.30;22.50;;;;;;20990080;28;20055;-57
2023/08/01 11:34:41;;;;;;;9.32;5.22;;;32.30;22.10;;;;;;20992698;28;20084;-56
2023/08/01 11:44:41;;;;;;;8.85;4.53;;;32.30;21.70;;;;;;21005187;28;20045;-58
2023/08/01 11:54:46;;;;;;;10.82;4.47;;;32.80;21.00;;;;;;21003834;28;20048;-56
2023/08/01 12:04:46;;;;;;;9.88;4.82;;;32.90;20.90;;;;;;20999493;28;20040;-57
2023/08/01 12:14:47;;;;;;;6.15;3.92;;;32.80;21.20;;;;;;21005312;28;20425;-55
2023/08/01 12:24:48;;;;;;;9.60;6.03;;;33.10;19.90;;;;;;21006312;28;20041;-55
2023/08/01 12:34:48;;;;;;;8.85;4.57;;;33.30;20.10;;;;;;21004828;28;20040;-57
2023/08/01 12:44:49;;;;;;;8.32;3.90;;;33.40;19.40;;;;;;21004982;28;20048;-57
2023/08/01 12:54:51;;;;;;;7.00;4.30;;;33.60;19.10;;;;;;21002062;28;20098;-56
2023/08/01 13:04:51;;;;;;;5.78;3.83;;;33.60;18.40;;;;;;21001857;28;20037;-56
2023/08/01 13:14:53;;;;;;;5.45;4.15;;;33.80;17.70;;;;;;21001188;28;20532;-57
2023/08/01 13:24:53;;;;;;;6.45;4.18;;;34.10;17.10;;;;;;21001763;28;20045;-57
2023/08/01 13:34:54;;;;;;;4.40;3.17;;;34.00;17.40;;;;;;21000773;28;20051;-58
2023/08/01 13:44:55;;;;;;;5.80;3.97;;;34.00;16.40;;;;;;20999687;28;20084;-57
2023/08/01 13:54:56;;;;;;;10.82;5.53;;;34.30;16.50;;;;;;20997441;28;20055;-57
2023/08/01 14:04:56;;;;;;;6.05;3.72;;;34.30;16.70;;;;;;20996663;28;20485;-56
2023/08/01 14:14:57;;;;;;;4.80;3.72;;;34.50;16.40;;;;;;20997840;28;20524;-57
2023/08/01 14:24:58;;;;;;;5.85;3.15;;;34.80;16.50;;;;;;20997148;28;20133;-57
2023/08/01 14:34:58;;;;;;;4.93;4.18;;;34.80;16.20;;;;;;20996711;28;20125;-60
2023/08/01 14:44:59;;;;;;;5.07;3.55;;;34.90;16.40;;;;;;20994864;28;20123;-59
2023/08/01 14:55:00;;;;;;;4.57;3.25;;;35.00;16.80;;;;;;20993739;28;20113;-58
2023/08/01 15:05:02;;;;;;;3.83;3.03;;;35.20;16.40;;;;;;20992614;28;20040;-59
2023/08/01 15:15:04;;;;;;;7.35;3.63;;;35.20;16.80;;;;;;20993069;28;20169;-59
2023/08/01 15:25:06;;;;;;;7.20;4.28;;;35.40;16.80;;;;;;21001568;28;20048;-59
2023/08/01 15:35:07;;;;;;;6.75;3.20;;;35.50;17.00;;;;;;21009936;28;20117;-59
2023/08/01 15:45:08;;;;;;;4.22;3.28;;;35.20;17.60;;;;;;21007857;28;20048;-60
2023/08/01 15:55:09;;;;;;;5.43;2.80;;;35.10;17.40;;;;;;21007786;28;20048;-58
2023/08/01 16:05:10;;;;;;;4.13;3.05;;;35.30;18.50;;;;;;21004804;28;20089;-57
2023/08/01 16:15:11;;;;;;;3.60;2.88;;;35.40;18.30;;;;;;21005543;28;20053;-58
2023/08/01 16:25:11;;;;;;;4.20;2.95;;;35.50;19.00;;;;;;20996504;28;20045;-60
2023/08/01 16:35:13;;;;;;;4.80;3.05;;;35.50;19.10;;;;;;20999521;28;20091;-59
2023/08/01 16:45:14;;;;;;;3.03;2.30;;;35.40;19.50;;;;;;21004108;28;20101;-57
2023/08/01 16:55:16;;;;;;;4.00;2.90;;;35.50;20.70;;;;;;21002507;28;20072;-58
2023/08/01 17:05:17;;;;;;;3.10;2.20;;;35.30;20.80;;;;;;21002189;28;20040;-58
2023/08/01 17:15:18;;;;;;;5.05;2.63;;;35.30;20.00;;;;;;21000238;28;20064;-58
2023/08/01 17:25:19;;;;;;;3.20;2.30;;;35.60;20.00;;;;;;21000672;28;20044;-57
2023/08/01 17:35:19;;;;;;;2.67;1.95;;;35.60;19.80;;;;;;21000373;28;20041;-58
2023/08/01 17:45:20;;;;;;;2.65;2.28;;;35.50;19.70;;;;;;20999415;28;20052;-58
2023/08/01 17:55:21;;;;;;;2.80;2.20;;;35.30;19.70;;;;;;20998564;28;20405;-58
2023/08/01 18:05:22;;;;;;;4.72;2.45;;;35.20;19.70;;;;;;20998111;28;20098;-57
2023/08/01 18:15:23;;;;;;;3.55;2.60;;;35.10;19.70;;;;;;20996278;28;20060;-57
2023/08/01 18:25:24;;;;;;;3.47;2.80;;;35.10;20.30;;;;;;20995751;28;20052;-59
2023/08/01 18:35:24;;;;;;;3.50;2.35;;;34.90;21.10;;;;;;20988569;28;20578;-58
2023/08/01 18:45:25;;;;;;;20.25;18.25;;;34.60;21.20;;;;;;20995896;28;20494;-57
2023/08/01 18:55:26;;;;;;;4.40;3.20;;;34.50;21.50;;;;;;20994723;28;20099;-58
2023/08/01 19:05:27;;;;;;;4.45;3.10;;;34.20;21.90;;;;;;20994867;28;20041;-57
2023/08/01 19:15:30;;;;;;;4.35;2.72;;;33.90;22.30;;;;;;20993450;28;20107;-57
2023/08/01 19:25:31;;;;;;;5.22;3.08;;;33.60;22.60;;;;;;20994261;28;20379;-58
2023/08/01 19:35:42;;;;;;;3.88;3.00;;;33.40;23.20;;;;;;20993661;28;20044;-57
2023/08/01 19:45:44;;;;;;;6.82;5.38;;;33.10;23.60;;;;;;20993164;28;20048;-59
2023/08/01 19:55:44;;;;;;;8.68;4.88;;;32.90;24.20;;;;;;20993231;28;20059;-58
2023/08/01 20:05:45;;;;;;;5.63;3.83;;;32.70;24.50;;;;;;21002468;28;20049;-59
2023/08/01 20:15:46;;;;;;;6.15;3.78;;;32.50;24.80;;;;;;21005561;28;20056;-57
2023/08/01 20:25:48;;;;;;;7.85;5.57;;;32.30;24.90;;;;;;21006433;28;20054;-58
2023/08/01 20:35:56;;;;;;;4.07;3.15;;;32.20;25.10;;;;;;21004202;28;20056;-57
2023/08/01 20:45:57;;;;;;;5.25;3.50;;;32.20;25.10;;;;;;21003955;28;20047;-57
2023/08/01 20:55:58;;;;;;;9.88;3.63;;;32.10;25.30;;;;;;21004378;28;20497;-58
2023/08/01 21:05:59;;;;;;;6.65;4.45;;;31.90;25.60;;;;;;21003433;28;20072;-57
2023/08/01 21:16:11;;;;;;;8.63;5.57;;;31.60;26.10;;;;;;21000772;28;20427;-58
2023/08/01 21:26:11;;;;;;;9.48;8.15;;;31.50;26.30;;;;;;21001707;28;20052;-57
2023/08/01 21:36:12;;;;;;;10.00;5.85;;;31.40;26.50;;;;;;20999104;28;20041;-57
2023/08/01 21:46:13;;;;;;;9.38;8.07;;;31.30;26.60;;;;;;20999037;28;20036;-58
2023/08/01 21:56:14;;;;;;;7.30;4.90;;;31.10;27.10;;;;;;20997436;28;20048;-58
2023/08/01 22:06:14;;;;;;;5.05;3.95;;;31.10;27.10;;;;;;20998112;28;20560;-57
2023/08/01 22:16:15;;;;;;;5.03;3.63;;;30.90;27.00;;;;;;20995995;28;20052;-59
2023/08/01 22:26:16;;;;;;;7.43;5.72;;;30.80;27.00;;;;;;20994520;28;20052;-57
2023/08/01 22:36:17;;;;;;;5.55;3.40;;;30.60;27.90;;;;;;20995749;28;20501;-58
2023/08/01 22:46:18;;;;;;;7.00;5.15;;;30.50;27.80;;;;;;20994729;28;20469;-58
2023/08/01 22:56:19;;;;;;;6.50;4.20;;;30.40;28.30;;;;;;20994404;28;20059;-59
2023/08/01 23:06:20;;;;;;;8.35;6.07;;;30.20;28.40;;;;;;20993150;28;20098;-57
2023/08/01 23:16:21;;;;;;;10.38;6.68;;;30.20;28.60;;;;;;20991810;28;20092;-57
2023/08/01 23:26:22;;;;;;;8.80;3.90;;;30.10;28.80;;;;;;20992355;28;20040;-58
2023/08/01 23:36:22;;;;;;;5.85;3.33;;;30.00;28.90;;;;;;20997100;28;20505;-57
2023/08/01 23:46:23;;;;;;;5.60;3.38;;;29.90;29.00;;;;;;21007379;28;20532;-58
2023/08/01 23:56:24;;;;;;;5.97;3.83;;;29.80;29.00;;;;;;21007359;28;20498;-57
